createdAt,value
2023-04-09T00:02:11.682Z,61.90
2023-04-09T00:12:13.850Z,45.60
2023-04-09T00:17:15.117Z,52.00
2023-04-09T00:22:16.084Z,41.40
2023-04-09T00:27:17.092Z,43.20
2023-04-09T00:32:18.055Z,50.50
2023-04-09T00:37:19.071Z,53.40
2023-04-09T00:42:21.037Z,50.10
2023-04-09T00:47:22.035Z,45.70
2023-04-09T00:52:24.086Z,47.70
2023-04-09T00:57:25.248Z,55.90
2023-04-09T01:02:27.776Z,44.50
2023-04-09T01:07:59.100Z,39.20
2023-04-09T01:13:12.962Z,47.50
2023-04-09T01:18:24.351Z,59.90
2023-04-09T01:24:01.197Z,43.20
2023-04-09T01:29:11.560Z,41.50
2023-04-09T01:34:14.223Z,40.90
2023-04-09T01:39:15.614Z,43.40
2023-04-09T01:44:17.593Z,57.50
2023-04-09T01:49:19.322Z,46.80
2023-04-09T01:54:20.558Z,44.50
2023-04-09T01:59:21.789Z,46.00
2023-04-09T02:04:24.186Z,40.50
2023-04-09T02:09:30.380Z,64.50
2023-04-09T02:14:32.777Z,86.70
2023-04-09T02:19:45.402Z,75.90
2023-04-09T02:24:47.820Z,58.70
2023-04-09T02:29:48.804Z,57.50
2023-04-09T02:34:49.780Z,77.80
2023-04-09T02:39:50.814Z,49.80
2023-04-09T02:44:52.003Z,57.70
2023-04-09T02:49:53.272Z,54.90
2023-04-09T02:54:54.854Z,56.40
2023-04-09T02:59:55.851Z,74.30
2023-04-09T03:04:56.868Z,63.40
2023-04-09T03:09:58.585Z,52.40
2023-04-09T03:14:59.650Z,62.00
2023-04-09T03:20:00.687Z,52.20
2023-04-09T03:25:09.120Z,72.80
2023-04-09T03:30:11.429Z,53.00
2023-04-09T03:35:16.868Z,43.90
2023-04-09T03:40:18.806Z,35.50
2023-04-09T03:45:20.768Z,48.50
2023-04-09T03:50:34.828Z,64.30
2023-04-09T03:55:37.191Z,70.40
2023-04-09T04:00:40.987Z,55.10
2023-04-09T04:06:03.052Z,64.80
2023-04-09T04:11:10.549Z,54.60
2023-04-09T04:16:17.794Z,52.90
2023-04-09T04:21:19.533Z,77.70
2023-04-09T04:26:28.111Z,60.80
2023-04-09T04:31:29.346Z,55.70
2023-04-09T04:36:32.074Z,57.50
2023-04-09T04:41:33.452Z,69.50
2023-04-09T04:46:57.606Z,77.80
2023-04-09T04:51:58.693Z,62.00
2023-04-09T04:57:00.884Z,90.70
2023-04-09T05:02:11.815Z,71.90
2023-04-09T05:07:29.055Z,51.90
2023-04-09T05:12:31.403Z,77.00
2023-04-09T05:17:32.854Z,83.70
2023-04-09T05:22:35.579Z,80.00
2023-04-09T05:27:37.432Z,61.20
2023-04-09T05:32:39.565Z,65.50
2023-04-09T05:37:41.671Z,71.40
2023-04-09T05:42:43.072Z,55.00
2023-04-09T05:47:52.889Z,52.40
2023-04-09T05:52:56.635Z,47.40
2023-04-09T05:58:02.059Z,47.70
2023-04-09T06:03:04.170Z,50.90
2023-04-09T06:08:05.799Z,51.00
2023-04-09T06:13:06.823Z,44.40
2023-04-09T06:18:07.926Z,43.90
2023-04-09T06:23:08.991Z,47.00
2023-04-09T06:28:10.847Z,53.60
2023-04-09T06:33:11.899Z,49.00
2023-04-09T06:38:12.982Z,50.90
2023-04-09T06:43:13.901Z,47.30
2023-04-09T06:48:22.442Z,49.80
2023-04-09T06:53:23.394Z,52.80
2023-04-09T06:58:24.786Z,47.50
2023-04-09T07:03:27.259Z,44.80
2023-04-09T07:08:28.770Z,42.50
2023-04-09T07:13:30.651Z,43.20
2023-04-09T07:18:31.714Z,49.60
2023-04-09T07:23:36.549Z,46.00
2023-04-09T07:28:39.873Z,44.30
2023-04-09T07:33:41.638Z,45.80
2023-04-09T07:38:44.232Z,41.20
2023-04-09T07:43:45.391Z,48.70
2023-04-09T07:48:48.300Z,45.10
2023-04-09T07:53:49.489Z,43.50
2023-04-09T07:58:50.778Z,38.70
2023-04-09T08:03:52.140Z,46.20
2023-04-09T08:08:53.529Z,36.80
2023-04-09T08:13:55.754Z,22.00
2023-04-09T08:18:56.988Z,31.40
2023-04-09T08:24:03.602Z,43.70
2023-04-09T08:29:04.818Z,40.20
2023-04-09T08:34:06.043Z,42.00
2023-04-09T08:39:06.983Z,46.00
2023-04-09T08:44:07.937Z,44.30
2023-04-09T08:49:10.126Z,38.90
2023-04-09T08:54:15.915Z,34.00
2023-04-09T08:59:20.557Z,49.70
2023-04-09T09:04:21.675Z,49.10
2023-04-09T09:09:22.971Z,58.00
2023-04-09T09:14:23.925Z,49.70
2023-04-09T09:19:24.993Z,46.70
2023-04-09T09:24:26.778Z,47.30
2023-04-09T09:29:28.308Z,54.50
2023-04-09T09:34:29.532Z,51.20
2023-04-09T09:39:43.993Z,54.60
2023-04-09T09:44:45.009Z,47.10
2023-04-09T09:49:49.002Z,46.90
2023-04-09T09:54:52.628Z,52.80
2023-04-09T10:00:00.005Z,52.60
2023-04-09T10:05:01.273Z,53.00
2023-04-09T10:10:12.702Z,52.90
2023-04-09T10:15:14.275Z,43.30
2023-04-09T10:20:31.992Z,49.30
2023-04-09T10:25:33.606Z,49.70
2023-04-09T10:30:36.017Z,47.50
2023-04-09T10:35:37.157Z,49.70
2023-04-09T10:40:48.722Z,46.40
2023-04-09T10:45:53.782Z,48.90
2023-04-09T10:50:54.898Z,40.30
2023-04-09T10:55:55.957Z,49.10
2023-04-09T11:01:00.985Z,57.40
2023-04-09T11:06:08.486Z,50.90
2023-04-09T11:11:09.484Z,36.60
2023-04-09T11:16:11.184Z,53.00
2023-04-09T11:21:12.909Z,46.40
2023-04-09T11:26:13.884Z,50.90
2023-04-09T11:31:15.817Z,50.30
2023-04-09T11:36:17.204Z,44.30
2023-04-09T11:41:18.165Z,48.50
2023-04-09T11:46:21.091Z,39.30
2023-04-09T11:51:22.910Z,43.20
2023-04-09T11:56:24.601Z,44.00
2023-04-09T12:01:31.842Z,42.40
2023-04-09T12:06:39.495Z,34.60
2023-04-09T12:11:43.623Z,42.20
2023-04-09T12:16:44.873Z,44.00
2023-04-09T12:21:52.233Z,38.80
2023-04-09T12:26:53.297Z,41.20
2023-04-09T12:31:54.343Z,40.20
2023-04-09T12:36:55.405Z,37.00
2023-04-09T12:41:57.057Z,39.10
2023-04-09T12:46:58.146Z,34.00
2023-04-09T12:51:59.283Z,34.80
2023-04-09T12:57:00.402Z,34.10
2023-04-09T13:02:01.581Z,29.60
2023-04-09T13:07:02.710Z,26.10
2023-04-09T13:12:03.665Z,29.40
2023-04-09T13:17:05.143Z,26.10
2023-04-09T13:22:08.176Z,25.30
2023-04-09T13:27:10.405Z,34.10
2023-04-09T13:32:11.527Z,25.70
2023-04-09T13:37:12.456Z,24.20
2023-04-09T13:42:14.524Z,23.00
2023-04-09T13:47:16.810Z,22.80
2023-04-09T13:52:17.849Z,19.30
2023-04-09T13:57:19.082Z,21.20
2023-04-09T14:02:20.214Z,12.00
2023-04-09T14:07:21.263Z,22.90
2023-04-09T14:12:22.217Z,22.80
2023-04-09T14:17:23.252Z,21.00
2023-04-09T14:22:25.741Z,23.60
2023-04-09T14:27:26.848Z,22.90
2023-04-09T14:32:27.891Z,17.10
2023-04-09T14:37:29.117Z,20.90
2023-04-09T14:42:30.123Z,15.90
2023-04-09T14:47:31.241Z,20.70
2023-04-09T14:52:32.518Z,20.40
2023-04-09T14:57:33.448Z,19.10
2023-04-09T15:02:34.804Z,19.00
2023-04-09T15:07:36.298Z,28.70
2023-04-09T15:12:37.253Z,18.50
2023-04-09T15:17:38.289Z,19.40
2023-04-09T15:22:39.952Z,16.50
2023-04-09T15:27:40.914Z,23.90
2023-04-09T15:32:41.884Z,23.00
2023-04-09T15:37:42.884Z,28.60
2023-04-09T15:42:44.086Z,27.50
2023-04-09T15:47:45.733Z,27.10
2023-04-09T15:52:48.288Z,20.80
2023-04-09T15:57:49.537Z,22.00
2023-04-09T16:02:52.332Z,23.20
2023-04-09T16:07:53.306Z,30.00
2023-04-09T16:12:54.247Z,28.60
2023-04-09T16:17:56.059Z,22.60
2023-04-09T16:22:57.123Z,37.60
2023-04-09T16:27:58.232Z,40.90
2023-04-09T16:32:59.199Z,27.20
2023-04-09T16:38:00.488Z,20.10
2023-04-09T16:43:01.939Z,17.20
2023-04-09T16:48:05.606Z,24.00
2023-04-09T16:53:07.332Z,27.80
2023-04-09T16:58:08.413Z,37.00
2023-04-09T17:03:09.531Z,30.70
2023-04-09T17:08:11.198Z,30.20
2023-04-09T17:13:12.169Z,31.50
2023-04-09T17:18:13.091Z,40.20
2023-04-09T17:23:14.248Z,32.00
2023-04-09T17:28:16.986Z,35.10
2023-04-09T17:33:19.742Z,36.10
2023-04-09T17:38:20.835Z,35.50
2023-04-09T17:43:22.082Z,34.90
2023-04-09T17:48:23.104Z,39.60
2023-04-09T17:53:24.190Z,48.90
2023-04-09T17:58:25.772Z,45.30
2023-04-09T18:03:26.915Z,49.10
2023-04-09T18:08:28.199Z,44.10
2023-04-09T18:13:29.192Z,50.20
2023-04-09T18:18:30.520Z,53.30
2023-04-09T18:23:32.222Z,49.00
2023-04-09T18:28:33.927Z,46.90
2023-04-09T18:33:34.882Z,45.80
2023-04-09T18:38:36.335Z,42.60
2023-04-09T18:43:37.320Z,60.40
2023-04-09T18:48:38.454Z,68.80
2023-04-09T18:53:40.430Z,57.70
2023-04-09T18:58:41.508Z,50.80
2023-04-09T19:03:44.190Z,64.50
2023-04-09T19:08:46.713Z,50.50
2023-04-09T19:13:47.676Z,60.30
2023-04-09T19:18:48.966Z,51.30
2023-04-09T19:23:50.052Z,34.80
2023-04-09T19:28:51.865Z,57.90
2023-04-09T19:33:53.017Z,52.90
2023-04-09T19:38:54.144Z,48.60
2023-04-09T19:43:55.485Z,39.30
2023-04-09T19:48:56.407Z,53.20
2023-04-09T19:53:57.353Z,53.40
2023-04-09T19:58:58.306Z,51.10
2023-04-09T20:03:59.298Z,32.20
2023-04-09T20:09:01.188Z,52.90
2023-04-09T20:14:03.167Z,41.00
2023-04-09T20:19:04.086Z,50.80
2023-04-09T20:24:06.072Z,46.50
2023-04-09T20:29:07.012Z,55.90
2023-04-09T20:34:07.921Z,61.00
2023-04-09T20:39:10.899Z,57.50
2023-04-09T20:44:12.039Z,53.10
2023-04-09T20:49:13.139Z,49.50
2023-04-09T20:54:14.773Z,43.00
2023-04-09T20:59:16.536Z,59.70
2023-04-09T21:04:17.746Z,67.70
2023-04-09T21:09:19.056Z,55.20
2023-04-09T21:14:25.877Z,47.20
2023-04-09T21:19:26.906Z,52.00
2023-04-09T21:24:27.947Z,45.70
2023-04-09T21:29:29.040Z,53.00
2023-04-09T21:34:30.770Z,54.80
2023-04-09T21:39:31.789Z,53.50
2023-04-09T21:44:33.940Z,57.10
2023-04-09T21:49:39.684Z,37.20
2023-04-09T21:54:45.939Z,50.40
2023-04-09T22:00:01.199Z,66.00
2023-04-09T22:05:07.857Z,54.80
2023-04-09T22:10:09.392Z,41.20
2023-04-09T22:15:11.516Z,55.10
2023-04-09T22:20:17.385Z,68.90
2023-04-09T22:25:22.303Z,62.00
2023-04-09T22:30:23.818Z,55.50
2023-04-09T22:35:24.961Z,42.70
2023-04-09T22:40:28.800Z,63.80
2023-04-09T22:45:31.473Z,49.10
2023-04-09T22:50:32.976Z,58.10
2023-04-09T22:55:33.934Z,42.50
2023-04-09T23:01:00.579Z,54.80
2023-04-09T23:06:01.559Z,59.10
2023-04-09T23:11:04.654Z,57.00
2023-04-09T23:16:10.311Z,62.50
2023-04-09T23:21:12.434Z,53.50
2023-04-09T23:26:13.356Z,58.80
2023-04-09T23:31:14.709Z,52.00
2023-04-09T23:36:15.841Z,58.70
2023-04-09T23:41:17.618Z,49.60
2023-04-09T23:46:19.415Z,51.40
2023-04-09T23:51:22.119Z,50.20
2023-04-09T23:56:23.170Z,66.40
